createdAt,value
2022-09-04T00:02:40.661Z,1.52
2022-09-04T00:05:41.310Z,1.60
2022-09-04T00:08:45.383Z,1.60
2022-09-04T00:11:39.954Z,1.67
2022-09-04T00:14:38.760Z,1.55
2022-09-04T00:17:52.579Z,1.40
2022-09-04T00:21:02.458Z,1.70
2022-09-04T00:23:50.480Z,1.55
2022-09-04T00:26:47.370Z,2.53
2022-09-04T00:29:51.624Z,3.72
2022-09-04T00:32:56.309Z,3.78
2022-09-04T00:35:42.731Z,4.88
2022-09-04T00:38:29.563Z,4.85
2022-09-04T00:41:18.772Z,4.95
2022-09-04T00:44:27.561Z,5.63
2022-09-04T00:47:08.778Z,5.82
2022-09-04T00:50:02.504Z,6.47
2022-09-04T00:52:36.624Z,6.60
2022-09-04T00:55:19.464Z,7.50
2022-09-04T00:58:48.101Z,7.32
2022-09-04T01:01:26.371Z,8.35
2022-09-04T01:04:40.150Z,8.57
2022-09-04T01:07:47.346Z,7.82
2022-09-04T01:10:43.153Z,9.13
2022-09-04T01:13:23.675Z,9.77
2022-09-04T01:16:18.562Z,8.63
2022-09-04T01:19:18.673Z,8.30
2022-09-04T01:22:22.785Z,8.77
2022-09-04T01:25:29.077Z,7.07
2022-09-04T01:28:35.970Z,7.10
2022-09-04T01:31:37.994Z,7.38
2022-09-04T01:34:43.013Z,7.53
2022-09-04T01:37:36.839Z,6.13
2022-09-04T01:40:35.069Z,6.70
2022-09-04T01:43:23.199Z,5.95
2022-09-04T01:46:24.077Z,6.18
2022-09-04T01:49:22.939Z,5.75
2022-09-04T01:51:54.983Z,5.50
2022-09-04T01:54:50.074Z,5.82
2022-09-04T01:57:37.490Z,4.80
2022-09-04T02:00:13.018Z,5.55
2022-09-04T02:03:12.303Z,7.32
2022-09-04T02:05:56.483Z,7.45
2022-09-04T02:09:12.261Z,6.15
2022-09-04T02:11:55.371Z,5.50
2022-09-04T02:15:01.729Z,5.07
2022-09-04T02:18:13.862Z,8.05
2022-09-04T02:21:01.589Z,14.93
2022-09-04T02:24:15.525Z,14.00
2022-09-04T02:27:07.940Z,26.85
2022-09-04T02:29:50.653Z,26.10
2022-09-04T02:32:32.525Z,26.08
2022-09-04T02:35:35.072Z,22.75
2022-09-04T02:38:25.467Z,15.50
2022-09-04T02:41:03.129Z,11.38
2022-09-04T02:43:44.032Z,18.42
2022-09-04T02:46:26.412Z,17.98
2022-09-04T02:49:16.684Z,15.33
2022-09-04T02:52:21.136Z,13.60
2022-09-04T02:54:55.841Z,10.63
2022-09-04T02:57:34.879Z,7.07
2022-09-04T03:00:21.001Z,11.77
2022-09-04T03:03:13.369Z,10.73
2022-09-04T03:06:03.926Z,8.65
2022-09-04T03:09:05.454Z,6.95
2022-09-04T03:11:45.808Z,4.25
2022-09-04T03:14:36.857Z,5.38
2022-09-04T03:17:20.239Z,4.40
2022-09-04T03:20:18.168Z,3.80
2022-09-04T03:23:04.105Z,4.10
2022-09-04T03:25:44.717Z,2.90
2022-09-04T03:28:32.389Z,2.88
2022-09-04T03:31:25.894Z,2.63
2022-09-04T03:34:26.877Z,2.78
2022-09-04T03:37:13.779Z,2.55
2022-09-04T03:39:46.076Z,2.95
2022-09-04T03:42:33.147Z,2.60
2022-09-04T03:45:25.263Z,2.55
2022-09-04T03:48:28.141Z,2.53
2022-09-04T03:51:52.307Z,2.70
2022-09-04T03:54:33.730Z,2.30
2022-09-04T03:57:28.101Z,2.05
2022-09-04T04:00:21.404Z,2.05
2022-09-04T04:03:14.001Z,2.08
2022-09-04T04:06:00.787Z,2.00
2022-09-04T04:09:02.774Z,2.05
2022-09-04T04:12:26.983Z,1.88
2022-09-04T04:15:23.149Z,1.98
2022-09-04T04:18:14.813Z,2.15
2022-09-04T04:21:09.185Z,1.88
2022-09-04T04:23:51.009Z,1.70
2022-09-04T04:26:54.690Z,2.65
2022-09-04T04:29:52.963Z,2.85
2022-09-04T04:32:39.151Z,4.72
2022-09-04T04:35:52.264Z,5.10
2022-09-04T04:38:27.882Z,5.05
2022-09-04T04:41:18.301Z,4.22
2022-09-04T04:44:11.816Z,3.55
2022-09-04T04:46:52.739Z,3.33
2022-09-04T04:50:01.593Z,2.92
2022-09-04T04:52:57.781Z,3.53
2022-09-04T04:55:42.215Z,2.13
2022-09-04T04:58:51.042Z,2.63
2022-09-04T05:01:41.436Z,2.67
2022-09-04T05:04:27.117Z,2.70
2022-09-04T05:07:21.716Z,2.70
2022-09-04T05:10:25.327Z,2.30
2022-09-04T05:13:27.434Z,2.58
2022-09-04T05:16:36.022Z,2.83
2022-09-04T05:19:41.454Z,2.13
2022-09-04T05:22:40.713Z,2.13
2022-09-04T05:25:25.897Z,2.10
2022-09-04T05:28:20.089Z,2.33
2022-09-04T05:31:21.502Z,2.95
2022-09-04T05:33:53.658Z,2.83
2022-09-04T05:36:50.557Z,2.33
2022-09-04T05:39:36.557Z,3.80
2022-09-04T05:42:47.036Z,2.55
2022-09-04T05:45:33.726Z,2.47
2022-09-04T05:48:20.739Z,2.42
2022-09-04T05:51:02.368Z,2.53
2022-09-04T05:54:02.411Z,2.50
2022-09-04T05:57:06.748Z,1.83
2022-09-04T06:00:02.983Z,2.35
2022-09-04T06:03:19.490Z,1.58
2022-09-04T06:06:16.003Z,1.70
2022-09-04T06:09:21.713Z,1.35
2022-09-04T06:12:24.236Z,1.40
2022-09-04T06:15:00.438Z,1.48
2022-09-04T06:17:50.196Z,1.23
2022-09-04T06:20:55.223Z,1.25
2022-09-04T06:23:46.270Z,1.48
2022-09-04T06:26:38.474Z,0.90
2022-09-04T06:29:29.992Z,1.02
2022-09-04T06:32:15.903Z,1.10
2022-09-04T06:35:12.120Z,1.02
2022-09-04T06:37:55.886Z,1.10
2022-09-04T06:40:44.107Z,1.00
2022-09-04T06:43:58.177Z,0.98
2022-09-04T06:46:42.590Z,0.70
2022-09-04T06:49:47.510Z,0.73
2022-09-04T06:52:40.948Z,0.80
2022-09-04T06:55:39.505Z,0.88
2022-09-04T06:58:44.504Z,0.80
2022-09-04T07:01:48.607Z,0.65
2022-09-04T07:04:29.502Z,0.50
2022-09-04T07:07:20.079Z,0.70
2022-09-04T07:10:01.892Z,0.82
2022-09-04T07:13:27.399Z,1.02
2022-09-04T07:16:34.391Z,0.85
2022-09-04T07:19:27.025Z,0.82
2022-09-04T07:24:50.873Z,0.70
2022-09-04T07:27:59.969Z,1.20
2022-09-04T07:30:38.663Z,0.75
2022-09-04T07:33:34.661Z,0.80
2022-09-04T07:36:29.632Z,1.15
2022-09-04T07:39:18.775Z,0.80
2022-09-04T07:42:18.434Z,0.77
2022-09-04T07:45:08.730Z,1.20
2022-09-04T07:47:48.027Z,0.75
2022-09-04T07:50:45.942Z,1.10
2022-09-04T07:53:42.772Z,1.33
2022-09-04T07:56:36.823Z,1.40
2022-09-04T07:59:33.666Z,0.77
2022-09-04T08:02:24.772Z,1.23
2022-09-04T08:05:03.208Z,1.45
2022-09-04T08:07:35.966Z,0.85
2022-09-04T08:12:50.078Z,2.00
2022-09-04T08:15:47.605Z,1.50
2022-09-04T08:18:46.517Z,1.48
2022-09-04T08:21:21.495Z,1.38
2022-09-04T08:24:08.708Z,1.88
2022-09-04T08:27:18.292Z,1.90
2022-09-04T08:29:50.332Z,1.23
2022-09-04T08:32:53.033Z,1.20
2022-09-04T08:35:44.038Z,1.50
2022-09-04T08:38:40.680Z,1.17
2022-09-04T08:41:29.126Z,1.40
2022-09-04T08:44:22.538Z,1.48
2022-09-04T08:47:38.920Z,2.03
2022-09-04T08:50:42.063Z,1.50
2022-09-04T08:53:20.216Z,1.42
2022-09-04T08:56:02.359Z,1.30
2022-09-04T08:59:15.343Z,2.85
2022-09-04T09:02:09.966Z,1.50
2022-09-04T09:05:12.587Z,2.38
2022-09-04T09:08:08.093Z,3.40
2022-09-04T09:10:53.177Z,3.20
2022-09-04T09:13:44.193Z,3.13
2022-09-04T09:16:25.577Z,3.08
2022-09-04T09:18:57.728Z,2.63
2022-09-04T09:22:07.859Z,2.90
2022-09-04T09:24:55.553Z,3.88
2022-09-04T09:28:05.103Z,3.70
2022-09-04T09:30:56.928Z,3.75
2022-09-04T09:33:50.902Z,3.03
2022-09-04T09:36:48.592Z,3.88
2022-09-04T09:39:54.150Z,7.47
2022-09-04T09:42:53.027Z,6.50
2022-09-04T09:45:57.973Z,5.72
2022-09-04T09:48:30.076Z,5.63
2022-09-04T09:51:35.397Z,3.85
2022-09-04T09:54:39.392Z,4.88
2022-09-04T10:00:16.210Z,4.72
2022-09-04T10:03:06.302Z,4.00
2022-09-04T10:05:53.334Z,4.20
2022-09-04T10:08:46.558Z,4.47
2022-09-04T10:11:40.305Z,3.80
2022-09-04T10:14:42.252Z,3.25
2022-09-04T10:17:35.360Z,3.97
2022-09-04T10:20:19.625Z,4.15
2022-09-04T10:22:58.234Z,3.85
2022-09-04T10:25:45.061Z,3.97
2022-09-04T10:28:42.302Z,3.95
2022-09-04T10:31:32.905Z,3.80
2022-09-04T10:34:41.984Z,8.10
2022-09-04T10:37:42.223Z,9.32
2022-09-04T10:40:51.557Z,10.52
2022-09-04T10:43:44.774Z,10.55
2022-09-04T10:46:37.291Z,10.18
2022-09-04T10:49:21.364Z,9.70
2022-09-04T10:52:23.199Z,9.63
2022-09-04T10:55:09.229Z,8.43
2022-09-04T10:58:06.078Z,7.95
2022-09-04T11:01:07.429Z,7.72
2022-09-04T11:04:00.524Z,7.22
2022-09-04T11:06:41.751Z,5.97
2022-09-04T11:09:43.589Z,5.30
2022-09-04T11:12:41.693Z,5.57
2022-09-04T11:15:32.004Z,5.28
2022-09-04T11:18:35.324Z,5.35
2022-09-04T11:21:45.797Z,5.35
2022-09-04T11:24:42.895Z,4.85
2022-09-04T11:27:30.802Z,6.20
2022-09-04T11:30:19.569Z,7.40
2022-09-04T11:32:54.977Z,7.30
2022-09-04T11:35:33.697Z,7.25
2022-09-04T11:38:19.755Z,7.60
2022-09-04T11:41:10.060Z,7.45
2022-09-04T11:44:29.376Z,7.28
2022-09-04T11:47:16.747Z,7.40
2022-09-04T11:49:54.585Z,7.15
2022-09-04T11:52:52.152Z,7.10
2022-09-04T11:55:57.216Z,7.38
2022-09-04T11:58:37.947Z,6.97
2022-09-04T12:01:47.816Z,7.47
2022-09-04T12:04:35.109Z,7.40
2022-09-04T12:07:15.609Z,7.68
2022-09-04T12:10:12.097Z,6.55
2022-09-04T12:12:52.555Z,6.05
2022-09-04T12:15:33.634Z,6.80
2022-09-04T12:18:23.827Z,6.45
2022-09-04T12:21:14.324Z,6.50
2022-09-04T12:24:01.141Z,6.13
2022-09-04T12:26:57.062Z,5.68
2022-09-04T12:30:08.871Z,5.35
2022-09-04T12:32:46.683Z,5.20
2022-09-04T12:35:37.199Z,6.20
2022-09-04T12:38:09.255Z,5.47
2022-09-04T12:43:52.039Z,5.00
2022-09-04T12:46:37.177Z,4.60
2022-09-04T12:49:30.691Z,4.65
2022-09-04T12:52:08.022Z,4.65
2022-09-04T12:54:55.392Z,4.35
2022-09-04T12:57:48.220Z,4.45
2022-09-04T13:00:20.943Z,4.00
2022-09-04T13:03:24.624Z,4.07
2022-09-04T13:06:15.375Z,3.50
2022-09-04T13:08:50.588Z,4.22
2022-09-04T13:11:41.981Z,3.92
2022-09-04T13:14:49.324Z,3.63
2022-09-04T13:17:47.558Z,3.65
2022-09-04T13:20:31.792Z,3.22
2022-09-04T13:23:26.872Z,2.83
2022-09-04T13:26:26.410Z,3.35
2022-09-04T13:29:26.837Z,3.00
2022-09-04T13:32:22.596Z,2.40
2022-09-04T13:35:03.511Z,2.78
2022-09-04T13:37:56.480Z,3.13
2022-09-04T13:41:12.937Z,2.00
2022-09-04T13:43:48.129Z,2.70
2022-09-04T13:46:31.453Z,2.20
2022-09-04T13:49:16.378Z,2.15
2022-09-04T13:52:08.135Z,2.03
2022-09-04T13:54:47.253Z,2.00
2022-09-04T13:57:23.273Z,2.00
2022-09-04T14:00:04.352Z,1.77
2022-09-04T14:02:40.544Z,1.67
2022-09-04T14:05:24.706Z,1.45
2022-09-04T14:08:07.416Z,1.63
2022-09-04T14:11:00.176Z,1.55
2022-09-04T14:13:54.945Z,1.77
2022-09-04T14:16:27.290Z,1.40
2022-09-04T14:19:12.235Z,1.33
2022-09-04T14:22:17.368Z,1.40
2022-09-04T14:28:14.654Z,1.30
2022-09-04T14:31:17.374Z,1.55
2022-09-04T14:34:04.896Z,1.20
2022-09-04T14:37:01.213Z,1.48
2022-09-04T14:39:47.871Z,1.13
2022-09-04T14:42:59.661Z,1.25
2022-09-04T14:46:04.122Z,1.70
2022-09-04T14:48:43.187Z,1.25
2022-09-04T14:51:32.379Z,1.00
2022-09-04T14:54:05.906Z,1.02
2022-09-04T14:56:51.647Z,0.80
2022-09-04T14:59:28.372Z,0.82
2022-09-04T15:02:15.791Z,0.80
2022-09-04T15:05:18.698Z,0.82
2022-09-04T15:08:03.112Z,0.75
2022-09-04T15:10:42.498Z,0.98
2022-09-04T15:13:33.516Z,0.90
2022-09-04T15:16:11.412Z,0.73
2022-09-04T15:19:06.549Z,0.70
2022-09-04T15:21:42.421Z,0.82
2022-09-04T15:24:26.778Z,0.70
2022-09-04T15:27:21.434Z,0.65
2022-09-04T15:29:56.279Z,0.60
2022-09-04T15:32:41.272Z,0.60
2022-09-04T15:35:18.877Z,0.60
2022-09-04T15:38:06.862Z,0.60
2022-09-04T15:41:16.692Z,0.70
2022-09-04T15:43:50.391Z,0.60
2022-09-04T15:46:41.277Z,0.50
2022-09-04T15:49:13.936Z,0.77
2022-09-04T15:54:30.258Z,0.60
2022-09-04T15:58:12.857Z,0.60
2022-09-04T16:01:10.669Z,0.60
2022-09-04T16:04:02.683Z,0.80
2022-09-04T16:06:59.353Z,0.50
2022-09-04T16:09:48.719Z,0.60
2022-09-04T16:12:29.373Z,0.50
2022-09-04T16:15:05.419Z,0.73
2022-09-04T16:17:54.087Z,0.63
2022-09-04T16:20:36.956Z,0.60
2022-09-04T16:23:16.553Z,0.60
2022-09-04T16:25:56.197Z,0.63
2022-09-04T16:28:35.291Z,0.82
2022-09-04T16:31:30.229Z,0.85
2022-09-04T16:34:10.500Z,0.70
2022-09-04T16:36:53.467Z,0.88
2022-09-04T16:39:30.385Z,0.80
2022-09-04T16:42:21.567Z,0.70
2022-09-04T16:45:05.376Z,0.93
2022-09-04T16:48:25.083Z,0.60
2022-09-04T16:51:39.665Z,0.70
2022-09-04T16:54:24.759Z,0.70
2022-09-04T16:57:15.456Z,0.70
2022-09-04T16:59:57.253Z,0.50
2022-09-04T17:02:53.680Z,1.07
2022-09-04T17:05:36.471Z,0.55
2022-09-04T17:08:15.704Z,0.80
2022-09-04T17:10:54.003Z,0.70
2022-09-04T17:13:50.068Z,0.73
2022-09-04T17:16:25.516Z,0.80
2022-09-04T17:18:57.781Z,0.70
2022-09-04T17:26:26.754Z,0.80
2022-09-04T17:28:58.809Z,0.68
2022-09-04T17:29:07.540Z,0.60
2022-09-04T17:31:03.813Z,0.82
2022-09-04T17:38:45.445Z,0.50
2022-09-04T17:40:40.468Z,0.60
2022-09-04T17:40:53.607Z,0.68
2022-09-04T17:43:29.705Z,0.50
2022-09-04T17:46:22.086Z,0.63
2022-09-04T17:48:55.368Z,0.80
2022-09-04T17:51:33.374Z,0.70
2022-09-04T17:54:14.891Z,0.75
2022-09-04T17:56:55.927Z,0.83
2022-09-04T18:00:02.491Z,0.77
2022-09-04T18:02:54.942Z,1.00
2022-09-04T18:05:53.845Z,0.80
2022-09-04T18:08:46.667Z,0.82
2022-09-04T18:11:30.601Z,0.88
2022-09-04T18:14:36.780Z,1.05
2022-09-04T18:17:30.948Z,0.70
2022-09-04T18:20:32.791Z,1.00
2022-09-04T18:23:23.661Z,1.00
2022-09-04T18:26:07.195Z,1.00
2022-09-04T18:28:55.791Z,1.13
2022-09-04T18:37:11.569Z,1.00
2022-09-04T18:37:22.651Z,1.02
2022-09-04T18:38:12.318Z,1.30
2022-09-04T18:45:32.626Z,1.58
2022-09-04T18:50:23.674Z,1.02
2022-09-04T18:50:35.126Z,1.17
2022-09-04T18:50:52.397Z,0.90
2022-09-04T18:52:51.803Z,1.10
2022-09-04T18:55:36.755Z,1.02
2022-09-04T18:58:14.765Z,1.10
2022-09-04T19:00:57.103Z,1.05
2022-09-04T19:04:00.597Z,0.90
2022-09-04T19:06:35.218Z,1.23
2022-09-04T19:09:23.473Z,1.00
2022-09-04T19:12:05.124Z,0.98
2022-09-04T19:14:43.624Z,1.20
2022-09-04T19:17:32.035Z,1.00
2022-09-04T19:20:15.897Z,1.02
2022-09-04T19:22:55.700Z,0.85
2022-09-04T19:25:37.530Z,1.13
2022-09-04T19:28:11.906Z,0.90
2022-09-04T19:31:07.650Z,0.88
2022-09-04T19:34:08.874Z,0.80
2022-09-04T19:37:13.562Z,0.73
2022-09-04T19:45:57.101Z,0.80
2022-09-04T19:46:15.612Z,0.88
2022-09-04T19:46:28.162Z,0.80
2022-09-04T19:52:36.852Z,0.70
2022-09-04T19:53:24.060Z,1.00
2022-09-04T19:55:57.064Z,0.60
2022-09-04T19:59:13.680Z,0.90
2022-09-04T20:02:03.047Z,0.80
2022-09-04T20:04:50.022Z,0.70
2022-09-04T20:07:49.160Z,0.90
2022-09-04T20:10:23.788Z,0.70
2022-09-04T20:13:35.190Z,0.70
2022-09-04T20:16:26.170Z,0.65
2022-09-04T20:19:18.589Z,0.70
2022-09-04T20:22:05.390Z,0.73
2022-09-04T20:25:06.171Z,0.70
2022-09-04T20:27:47.420Z,0.80
2022-09-04T20:30:29.320Z,0.77
2022-09-04T20:33:19.642Z,0.65
2022-09-04T20:36:03.708Z,0.60
2022-09-04T20:38:59.437Z,0.73
2022-09-04T20:42:09.805Z,1.00
2022-09-04T20:52:12.251Z,0.70
2022-09-04T20:52:54.413Z,0.60
2022-09-04T20:52:56.436Z,0.73
2022-09-04T20:54:05.687Z,0.65
2022-09-04T20:58:36.805Z,0.60
2022-09-04T21:03:09.235Z,0.60
2022-09-04T21:03:35.303Z,0.50
2022-09-04T21:06:15.840Z,0.70
2022-09-04T21:09:04.523Z,0.65
2022-09-04T21:11:45.533Z,0.50
2022-09-04T21:14:33.364Z,0.60
2022-09-04T21:17:35.156Z,0.60
2022-09-04T21:20:28.756Z,0.80
2022-09-04T21:23:11.370Z,0.82
2022-09-04T21:26:26.272Z,1.00
2022-09-04T21:29:11.640Z,0.80
2022-09-04T21:32:07.521Z,0.80
2022-09-04T21:35:11.762Z,0.80
2022-09-04T21:37:52.116Z,0.80
2022-09-04T21:40:58.204Z,0.70
2022-09-04T21:44:00.729Z,0.95
2022-09-04T21:47:00.303Z,0.70
2022-09-04T21:50:23.130Z,0.90
2022-09-04T21:53:19.928Z,1.23
2022-09-04T22:01:04.778Z,0.90
2022-09-04T22:02:42.616Z,1.00
2022-09-04T22:02:52.579Z,1.10
2022-09-04T22:05:45.207Z,1.33
2022-09-04T22:13:30.137Z,1.50
2022-09-04T22:13:43.868Z,1.70
2022-09-04T22:15:08.892Z,1.40
2022-09-04T22:18:06.147Z,1.73
2022-09-04T22:21:09.113Z,1.90
2022-09-04T22:23:49.693Z,1.75
2022-09-04T22:26:51.662Z,1.25
2022-09-04T22:29:39.565Z,1.48
2022-09-04T22:32:34.762Z,1.58
2022-09-04T22:35:36.190Z,1.80
2022-09-04T22:38:29.176Z,2.20
2022-09-04T22:41:20.677Z,2.00
2022-09-04T22:44:06.146Z,2.05
2022-09-04T22:47:24.673Z,2.10
2022-09-04T22:50:49.725Z,2.33
2022-09-04T22:53:49.193Z,2.10
2022-09-04T22:56:36.245Z,2.20
2022-09-04T22:59:49.919Z,2.28
2022-09-04T23:13:44.172Z,2.60
2022-09-04T23:13:57.624Z,12.18
2022-09-04T23:15:10.289Z,17.73
2022-09-04T23:20:40.009Z,17.58
2022-09-04T23:26:39.476Z,17.17
2022-09-04T23:26:43.937Z,19.30
2022-09-04T23:27:59.470Z,20.70
2022-09-04T23:31:07.053Z,18.33
2022-09-04T23:33:50.832Z,16.90
2022-09-04T23:36:42.657Z,14.73
2022-09-04T23:39:39.403Z,12.07
2022-09-04T23:42:41.516Z,12.35
2022-09-04T23:45:28.000Z,9.50
2022-09-04T23:48:16.380Z,8.98
2022-09-04T23:51:18.641Z,10.52
2022-09-04T23:54:23.138Z,8.20
2022-09-04T23:57:12.912Z,7.00
